Time;durP1;ratioP1;P1;durP2;ratioP2;P2;SDS_P1;SDS_P2;PMS_P1;PMS_P2;Temp;Humidity;BMP_temperature;BMP_pressure;BME280_temperature;BME280_humidity;BME280_pressure;Samples;Min_cycle;Max_cycle;Signal;HPM_P1;HPM_P2
2022/06/01 00:01:10;;;;;;;;;5.00;5.00;;;;;11.28;67.68;99603.03;5058267;28;8837;-64
2022/06/01 00:03:37;;;;;;;;;6.00;5.00;;;;;11.28;67.26;99604.84;5057262;28;8861;-64
2022/06/01 00:06:05;;;;;;;;;5.50;4.50;;;;;11.29;67.67;99607.38;5058869;28;8852;-64
2022/06/01 00:08:33;;;;;;;;;5.00;4.50;;;;;11.30;66.97;99595.72;5039037;28;9857;-64
2022/06/01 00:11:01;;;;;;;;;3.00;3.00;;;;;11.29;67.48;99602.03;5038939;28;8951;-67
2022/06/01 00:13:28;;;;;;;;;6.00;4.67;;;;;11.29;67.36;99599.38;5038356;28;8860;-64
2022/06/01 00:15:56;;;;;;;;;3.50;3.50;;;;;11.28;67.43;99605.69;5038360;28;8862;-65
2022/06/01 00:18:24;;;;;;;;;3.50;3.50;;;;;11.27;67.27;99603.16;5038653;28;8845;-64
2022/06/01 00:20:52;;;;;;;;;7.00;6.50;;;;;11.25;67.20;99610.44;5038210;28;8856;-64
2022/06/01 00:23:19;;;;;;;;;6.75;6.50;;;;;11.20;67.21;99599.34;5038215;28;9510;-66
2022/06/01 00:25:47;;;;;;;;;6.00;4.00;;;;;11.15;67.47;99601.56;5039004;28;8843;-65
2022/06/01 00:28:15;;;;;;;;;6.00;6.00;;;;;11.09;67.58;99612.75;5039383;28;8856;-65
2022/06/01 00:30:43;;;;;;;;;7.00;6.50;;;;;11.04;67.69;99610.50;5037848;28;8844;-64
2022/06/01 00:33:11;;;;;;;;;6.00;5.00;;;;;11.00;67.55;99614.41;5038754;28;8918;-64
2022/06/01 00:35:38;;;;;;;;;6.75;6.25;;;;;10.98;67.93;99613.69;5038416;28;8851;-64
2022/06/01 00:38:06;;;;;;;;;6.00;3.00;;;;;10.95;68.02;99605.13;5038532;28;8848;-64
2022/06/01 00:40:39;;;;;;;;;7.00;6.25;;;;;10.93;67.71;99607.06;5037887;28;8942;-65
2022/06/01 00:43:06;;;;;;;;;6.50;6.50;;;;;10.92;67.74;99611.56;5038012;28;8858;-64
2022/06/01 00:45:34;;;;;;;;;6.50;5.50;;;;;10.92;68.05;99606.22;5037117;28;8848;-64
2022/06/01 00:48:01;;;;;;;;;6.00;6.00;;;;;10.92;67.44;99608.06;5037422;28;8840;-64
2022/06/01 00:50:29;;;;;;;;;6.00;5.00;;;;;10.94;67.40;99611.44;5037234;28;8846;-64
2022/06/01 00:52:57;;;;;;;;;9.25;8.00;;;;;10.94;67.62;99609.59;5036834;28;8863;-64
2022/06/01 00:55:25;;;;;;;;;9.00;9.00;;;;;10.95;67.48;99602.47;5037257;28;8866;-64
2022/06/01 00:57:52;;;;;;;;;8.50;7.00;;;;;10.95;67.95;99605.97;5038370;28;8840;-64
2022/06/01 01:00:21;;;;;;;;;7.50;7.50;;;;;10.94;67.68;99604.25;5037440;28;8845;-64
2022/06/01 01:02:49;;;;;;;;;6.25;6.25;;;;;10.94;67.94;99592.78;5038037;28;8886;-64
2022/06/01 01:05:17;;;;;;;;;7.00;6.75;;;;;10.95;67.38;99600.66;5037610;28;8859;-64
2022/06/01 01:07:44;;;;;;;;;7.00;6.75;;;;;10.97;68.14;99601.34;5037631;28;8959;-64
2022/06/01 01:10:12;;;;;;;;;6.50;5.50;;;;;10.98;67.98;99594.19;5036891;28;8825;-64
2022/06/01 01:12:59;;;;;;;;;4.00;4.00;;;;;10.99;67.37;99601.22;5038099;28;8852;-65
2022/06/01 01:15:27;;;;;;;;;7.00;7.00;;;;;10.99;67.68;99594.06;5050845;28;8834;-65
2022/06/01 01:17:55;;;;;;;;;6.25;5.75;;;;;11.00;67.23;99592.25;5057808;28;8858;-65
2022/06/01 01:20:23;;;;;;;;;7.00;7.00;;;;;11.00;67.61;99597.59;5057568;28;8872;-64
2022/06/01 01:22:50;;;;;;;;;8.50;6.25;;;;;11.00;67.78;99598.41;5055206;28;9488;-65
2022/06/01 01:25:18;;;;;;;;;7.00;7.00;;;;;11.01;67.58;99593.94;5057564;28;8826;-64
2022/06/01 01:27:46;;;;;;;;;8.00;6.75;;;;;11.02;67.64;99603.63;5056798;28;8858;-64
2022/06/01 01:30:14;;;;;;;;;3.75;3.25;;;;;11.02;67.63;99595.63;5057256;28;8911;-64
2022/06/01 01:32:42;;;;;;;;;7.50;7.00;;;;;11.01;67.43;99586.78;5056923;28;8903;-64
2022/06/01 01:35:10;;;;;;;;;7.00;7.00;;;;;11.02;67.79;99585.81;5056569;28;9690;-64
2022/06/01 01:37:38;;;;;;;;;6.50;6.25;;;;;11.03;67.54;99597.31;5057555;28;8957;-65
2022/06/01 01:40:05;;;;;;;;;6.75;6.00;;;;;11.04;67.49;99588.31;5056843;28;8965;-64
2022/06/01 01:42:33;;;;;;;;;9.00;9.00;;;;;11.04;67.27;99591.84;5056881;28;8850;-65
2022/06/01 01:45:00;;;;;;;;;9.00;9.00;;;;;11.03;67.27;99598.16;5057025;28;8868;-65
2022/06/01 01:47:28;;;;;;;;;7.00;6.25;;;;;11.02;67.31;99591.16;5056515;28;8948;-65
2022/06/01 01:49:56;;;;;;;;;4.00;3.50;;;;;11.03;67.63;99591.97;5056852;28;8838;-64
2022/06/01 01:52:24;;;;;;;;;7.50;7.00;;;;;11.01;67.06;99589.44;5048417;28;8840;-64
2022/06/01 01:54:52;;;;;;;;;6.50;6.50;;;;;10.99;68.04;99595.91;5036691;28;8841;-65
2022/06/01 01:57:19;;;;;;;;;9.25;7.50;;;;;10.95;67.63;99590.00;5036519;28;8836;-64
2022/06/01 01:59:47;;;;;;;;;6.00;6.00;;;;;10.92;67.74;99592.06;5036653;28;8974;-64
2022/06/01 02:02:15;;;;;;;;;9.25;9.00;;;;;10.88;67.74;99579.97;5036400;28;8987;-64
2022/06/01 02:07:29;;;;;;;;;10.00;9.00;;;;;10.77;68.14;99578.25;5036741;28;8836;-64
2022/06/01 02:12:42;;;;;;;;;3.00;3.00;;;;;10.65;68.55;99587.31;5036438;28;8882;-65
2022/06/01 02:15:10;;;;;;;;;7.50;7.50;;;;;10.60;68.74;99586.84;5035939;28;8848;-65
2022/06/01 02:17:38;;;;;;;;;9.25;8.50;;;;;10.55;68.56;99589.03;5036125;28;8960;-64
2022/06/01 02:20:07;;;;;;;;;8.50;7.00;;;;;10.50;68.79;99583.28;5036255;28;8856;-64
2022/06/01 02:22:35;;;;;;;;;7.50;7.50;;;;;10.44;68.73;99589.13;5044656;28;8957;-64
2022/06/01 02:25:03;;;;;;;;;9.75;9.00;;;;;10.38;68.85;99579.00;5055965;28;8838;-64
2022/06/01 02:27:31;;;;;;;;;9.50;8.50;;;;;10.31;69.42;99575.16;5055885;28;8940;-64
2022/06/01 02:29:58;;;;;;;;;9.00;9.00;;;;;10.26;69.72;99580.00;5056068;28;8838;-64
2022/06/01 02:32:28;;;;;;;;;9.00;9.00;;;;;10.21;69.94;99578.72;5055977;28;8838;-64
2022/06/01 02:34:56;;;;;;;;;9.00;8.00;;;;;10.16;69.56;99588.94;5056291;28;8830;-64
2022/06/01 02:37:24;;;;;;;;;7.00;5.50;;;;;10.11;69.64;99586.63;5056161;28;8830;-64
2022/06/01 02:39:52;;;;;;;;;7.00;7.00;;;;;10.07;69.36;99576.38;5056402;28;8849;-64
2022/06/01 02:42:29;;;;;;;;;6.75;6.75;;;;;10.05;69.20;99587.16;5055475;28;8865;-64
2022/06/01 02:44:57;;;;;;;;;9.00;9.00;;;;;10.03;69.69;99585.59;5055955;28;8857;-65
2022/06/01 02:47:24;;;;;;;;;13.00;10.00;;;;;10.00;69.79;99585.78;5055676;28;8853;-64
2022/06/01 02:49:52;;;;;;;;;9.75;7.00;;;;;9.97;69.71;99589.56;5055324;28;8856;-64
2022/06/01 02:52:20;;;;;;;;;9.75;9.75;;;;;9.92;69.84;99588.25;5053655;28;8823;-64
2022/06/01 02:54:47;;;;;;;;;10.50;6.75;;;;;9.88;70.07;99590.31;5056197;28;9535;-65
2022/06/01 02:57:15;;;;;;;;;7.50;7.00;;;;;9.83;69.99;99584.53;5055426;28;8822;-65
2022/06/01 02:59:43;;;;;;;;;4.00;3.25;;;;;9.80;69.72;99590.09;5055651;28;8831;-65
2022/06/01 03:02:11;;;;;;;;;6.25;6.25;;;;;9.77;69.95;99598.34;5055315;28;8884;-64
2022/06/01 03:04:39;;;;;;;;;6.25;6.25;;;;;9.74;70.20;99589.75;5056103;28;8860;-64
2022/06/01 03:07:06;;;;;;;;;9.50;8.00;;;;;9.73;70.32;99590.75;5055744;28;8968;-65
2022/06/01 03:09:35;;;;;;;;;5.50;4.00;;;;;9.71;70.37;99595.34;5055406;28;8831;-65
2022/06/01 03:12:04;;;;;;;;;8.00;7.00;;;;;9.68;70.24;99591.13;5055802;28;8814;-65
2022/06/01 03:14:32;;;;;;;;;9.50;8.00;;;;;9.66;69.98;99602.84;5055680;28;9658;-64
2022/06/01 03:17:00;;;;;;;;;10.00;10.00;;;;;9.64;70.30;99604.78;5055085;28;8830;-65
2022/06/01 03:19:27;;;;;;;;;10.50;9.00;;;;;9.62;70.36;99602.25;5055282;28;8831;-65
2022/06/01 03:21:56;;;;;;;;;9.50;7.50;;;;;9.61;70.35;99607.69;5051740;28;9580;-65
2022/06/01 03:24:23;;;;;;;;;10.25;9.00;;;;;9.59;70.43;99602.50;5035522;28;8852;-64
2022/06/01 03:26:51;;;;;;;;;8.50;7.50;;;;;9.56;70.62;99602.72;5035321;28;8872;-65
2022/06/01 03:29:23;;;;;;;;;7.50;7.00;;;;;9.53;70.19;99608.31;5035027;28;8840;-65
2022/06/01 03:31:51;;;;;;;;;10.00;10.00;;;;;9.53;70.76;99612.78;5035239;28;8828;-65
2022/06/01 03:34:19;;;;;;;;;7.00;6.50;;;;;9.52;70.14;99609.28;5039063;28;8833;-64
2022/06/01 03:36:47;;;;;;;;;10.50;10.50;;;;;9.51;70.48;99607.59;5038986;28;8856;-65
2022/06/01 03:39:14;;;;;;;;;8.50;8.50;;;;;9.51;70.32;99610.25;5047915;28;8811;-64
2022/06/01 03:41:42;;;;;;;;;8.00;8.00;;;;;9.50;70.25;99611.19;5059261;28;8822;-65
2022/06/01 03:46:55;;;;;;;;;10.00;10.00;;;;;9.50;70.29;99615.69;5059271;28;9492;-65
2022/06/01 03:49:23;;;;;;;;;12.75;11.50;;;;;9.49;69.84;99608.69;5059238;28;8853;-64
2022/06/01 03:51:51;;;;;;;;;8.80;8.20;;;;;9.49;69.82;99609.50;5055853;28;9467;-64
2022/06/01 03:54:18;;;;;;;;;10.00;9.50;;;;;9.53;70.19;99608.31;5038560;28;9489;-64
2022/06/01 03:56:46;;;;;;;;;9.20;9.00;;;;;9.58;70.23;99608.75;5038707;28;8840;-64
2022/06/01 03:59:15;;;;;;;;;7.00;6.00;;;;;9.61;69.89;99605.88;5038957;28;8976;-64
2022/06/01 04:01:43;;;;;;;;;10.00;9.20;;;;;9.64;69.95;99612.75;5038829;28;8864;-65
2022/06/01 04:04:11;;;;;;;;;9.00;9.00;;;;;9.67;70.11;99613.34;5038842;28;9513;-64
2022/06/01 04:06:38;;;;;;;;;6.25;6.25;;;;;9.69;70.22;99616.72;5039014;28;8841;-64
2022/06/01 04:09:07;;;;;;;;;11.25;9.25;;;;;9.73;69.74;99620.81;5038307;28;8849;-64
2022/06/01 04:11:35;;;;;;;;;7.50;7.00;;;;;9.80;69.87;99629.97;5038356;28;8856;-65
2022/06/01 04:14:02;;;;;;;;;9.00;9.00;;;;;9.86;69.62;99632.16;5038406;28;8856;-65
2022/06/01 04:16:30;;;;;;;;;9.00;8.50;;;;;9.94;69.93;99643.00;5037873;28;8859;-65
2022/06/01 04:18:59;;;;;;;;;6.50;6.50;;;;;10.00;69.19;99631.88;5038451;28;8840;-65
2022/06/01 04:21:27;;;;;;;;;8.25;6.75;;;;;10.04;69.64;99640.47;5056903;28;8818;-65
2022/06/01 04:23:54;;;;;;;;;7.50;7.00;;;;;10.07;69.60;99635.75;5058230;28;8850;-65
2022/06/01 04:26:22;;;;;;;;;11.50;9.75;;;;;10.14;68.88;99636.94;5057851;28;8900;-65
2022/06/01 04:28:55;;;;;;;;;11.00;10.00;;;;;10.24;68.77;99637.03;5058193;28;8846;-65
2022/06/01 04:31:24;;;;;;;;;7.00;6.75;;;;;10.36;68.27;99630.66;5053395;28;8829;-65
2022/06/01 04:33:51;;;;;;;;;12.00;10.50;;;;;10.47;68.15;99635.94;5054383;28;8813;-66
2022/06/01 04:36:19;;;;;;;;;10.00;9.75;;;;;10.58;68.09;99628.75;5058068;28;8864;-65
2022/06/01 04:38:47;;;;;;;;;9.50;8.50;;;;;10.66;67.90;99634.25;5057956;28;8868;-65
2022/06/01 04:41:15;;;;;;;;;8.50;7.50;;;;;10.70;67.92;99627.69;5057606;28;8822;-65
2022/06/01 04:43:42;;;;;;;;;11.25;9.25;;;;;10.75;67.96;99633.47;5057293;28;9578;-65
2022/06/01 04:46:10;;;;;;;;;8.00;7.00;;;;;10.80;67.74;99641.06;5057431;28;8849;-68
2022/06/01 04:48:38;;;;;;;;;9.75;9.50;;;;;10.84;67.86;99640.66;5057306;28;8864;-65
2022/06/01 04:51:06;;;;;;;;;9.00;8.00;;;;;10.93;68.14;99644.38;5056921;28;8834;-65
2022/06/01 04:53:33;;;;;;;;;7.00;6.75;;;;;10.99;68.23;99634.03;5053848;28;9452;-64
2022/06/01 04:56:01;;;;;;;;;12.25;12.00;;;;;11.04;67.52;99639.81;5037406;28;8988;-65
2022/06/01 04:58:28;;;;;;;;;7.00;6.75;;;;;11.07;67.91;99641.38;5036605;28;8854;-65
2022/06/01 05:00:58;;;;;;;;;11.00;10.00;;;;;11.09;67.56;99637.56;5036691;28;8844;-65
2022/06/01 05:03:25;;;;;;;;;15.75;11.50;;;;;11.16;67.68;99632.56;5035878;28;8840;-65
2022/06/01 05:05:53;;;;;;;;;12.75;11.50;;;;;11.23;67.42;99637.22;5036525;28;8878;-65
2022/06/01 05:08:21;;;;;;;;;16.50;13.75;;;;;11.30;67.73;99635.72;5037035;28;8840;-65
2022/06/01 05:10:49;;;;;;;;;7.50;7.00;;;;;11.39;67.64;99640.22;5036894;28;8824;-65
2022/06/01 05:13:16;;;;;;;;;12.25;11.00;;;;;11.47;67.68;99643.09;5036790;28;8853;-65
2022/06/01 05:15:44;;;;;;;;;10.00;8.50;;;;;11.55;67.45;99635.25;5036464;28;8898;-65
2022/06/01 05:18:12;;;;;;;;;11.50;11.50;;;;;11.62;67.35;99633.78;5040491;28;8939;-66
2022/06/01 05:20:40;;;;;;;;;12.00;10.50;;;;;11.69;67.06;99632.22;5056923;28;8986;-66
2022/06/01 05:23:08;;;;;;;;;12.50;11.00;;;;;11.77;67.30;99637.75;5056594;28;8888;-65
2022/06/01 05:25:41;;;;;;;;;14.75;14.00;;;;;11.86;67.42;99642.25;5043706;28;8847;-65
2022/06/01 05:28:08;;;;;;;;;10.00;10.00;;;;;11.94;66.63;99642.41;5042412;28;8833;-66
2022/06/01 05:30:36;;;;;;;;;14.50;14.50;;;;;12.03;66.89;99633.56;5055904;28;8857;-65
2022/06/01 05:33:04;;;;;;;;;11.00;10.00;;;;;12.12;66.54;99632.72;5055734;28;8966;-66
2022/06/01 05:35:32;;;;;;;;;8.25;7.00;;;;;12.20;66.68;99635.53;5054994;28;8852;-65
2022/06/01 05:37:59;;;;;;;;;12.00;10.00;;;;;12.27;66.72;99631.31;5055668;28;8864;-66
2022/06/01 05:40:30;;;;;;;;;12.75;9.00;;;;;12.33;66.79;99630.78;5043053;28;8842;-65
2022/06/01 05:42:57;;;;;;;;;12.00;12.00;;;;;12.42;66.79;99640.59;5055173;28;8967;-66
2022/06/01 05:45:25;;;;;;;;;9.00;7.00;;;;;12.48;66.87;99637.38;5054136;28;8842;-67
2022/06/01 05:47:53;;;;;;;;;13.50;11.50;;;;;12.55;66.63;99639.31;5054409;28;8872;-65
2022/06/01 05:50:21;;;;;;;;;15.50;13.00;;;;;12.63;66.58;99635.97;5055395;28;8838;-66
2022/06/01 05:52:49;;;;;;;;;15.25;12.25;;;;;12.68;66.56;99629.19;5055455;28;9547;-66
2022/06/01 05:55:16;;;;;;;;;14.25;14.25;;;;;12.79;65.89;99631.72;5053538;28;8856;-65
2022/06/01 05:57:44;;;;;;;;;12.50;12.00;;;;;12.90;66.00;99636.88;5051813;28;8846;-66
2022/06/01 06:00:16;;;;;;;;;12.25;10.00;;;;;13.00;66.18;99643.06;5040309;28;8833;-67
2022/06/01 06:02:43;;;;;;;;;16.50;15.25;;;;;13.06;65.66;99633.66;5051547;28;8834;-66
2022/06/01 06:07:53;;;;;;;;;12.00;11.00;;;;;13.24;65.28;99639.91;5039797;28;8994;-65
2022/06/01 06:10:21;;;;;;;;;18.75;16.25;;;;;13.29;65.92;99637.66;5052953;28;8834;-66
2022/06/01 06:12:49;;;;;;;;;13.75;13.00;;;;;13.33;65.16;99639.91;5047678;28;8964;-66
2022/06/01 06:15:16;;;;;;;;;13.50;13.50;;;;;13.41;65.57;99639.16;5047618;28;8834;-66
2022/06/01 06:17:48;;;;;;;;;14.00;12.50;;;;;13.48;65.29;99640.25;5034557;28;8848;-66
2022/06/01 06:20:16;;;;;;;;;9.75;9.75;;;;;13.54;65.07;99636.97;5034045;28;8876;-65
2022/06/01 06:22:44;;;;;;;;;15.25;15.00;;;;;13.62;65.02;99637.94;5041903;28;8830;-66
2022/06/01 06:25:12;;;;;;;;;13.00;12.75;;;;;13.71;64.70;99646.88;5053487;28;8815;-66
2022/06/01 06:27:40;;;;;;;;;13.00;13.00;;;;;13.81;64.76;99653.06;5053703;28;9504;-66
2022/06/01 06:30:07;;;;;;;;;12.00;12.00;;;;;13.90;64.38;99649.47;5045977;28;8858;-66
2022/06/01 06:32:35;;;;;;;;;18.25;16.00;;;;;14.02;64.25;99650.91;5033451;28;8862;-67
2022/06/01 06:35:03;;;;;;;;;15.00;15.00;;;;;14.15;63.67;99649.59;5034236;28;8840;-66
2022/06/01 06:37:31;;;;;;;;;24.25;22.50;;;;;14.23;63.91;99654.19;5034379;28;8852;-66
2022/06/01 06:39:58;;;;;;;;;5.00;5.00;;;;;14.25;63.64;99654.88;5034645;28;8862;-67
2022/06/01 06:42:26;;;;;;;;;17.75;15.50;;;;;14.26;63.78;99661.94;5035386;28;8906;-68
2022/06/01 06:44:54;;;;;;;;;22.00;21.00;;;;;14.29;63.87;99667.84;5034701;28;8917;-66
2022/06/01 06:47:21;;;;;;;;;23.00;22.25;;;;;14.32;63.70;99655.97;5033797;28;8828;-67
2022/06/01 06:49:49;;;;;;;;;17.50;15.00;;;;;14.35;63.61;99669.06;5034382;28;8854;-67
2022/06/01 06:52:17;;;;;;;;;17.00;15.75;;;;;14.36;64.06;99665.38;5034771;28;8856;-68
2022/06/01 06:54:45;;;;;;;;;6.50;5.75;;;;;14.38;64.07;99666.94;5034276;28;8959;-66
2022/06/01 06:57:12;;;;;;;;;15.25;11.00;;;;;14.44;64.13;99668.16;5033947;28;8836;-67
2022/06/01 06:59:40;;;;;;;;;20.75;18.50;;;;;14.53;64.06;99664.53;5036618;28;8831;-67
2022/06/01 07:02:08;;;;;;;;;18.75;17.50;;;;;14.61;63.92;99662.78;5048664;28;8829;-68
2022/06/01 07:04:36;;;;;;;;;18.50;17.00;;;;;14.71;63.43;99668.06;5032543;28;8859;-66
2022/06/01 07:07:04;;;;;;;;;14.75;14.00;;;;;14.82;63.10;99670.50;5032835;28;9534;-66
2022/06/01 07:09:32;;;;;;;;;20.50;17.75;;;;;14.80;63.17;99667.13;5033640;28;8848;-67
2022/06/01 07:11:59;;;;;;;;;16.00;15.00;;;;;14.81;62.92;99671.50;5033494;28;8844;-67
2022/06/01 07:14:27;;;;;;;;;16.00;14.00;;;;;14.82;63.57;99675.84;5034269;28;9535;-67
2022/06/01 07:16:55;;;;;;;;;17.00;15.50;;;;;14.89;62.88;99668.88;5033588;28;8832;-66
2022/06/01 07:19:22;;;;;;;;;14.75;12.50;;;;;14.99;63.08;99674.97;5034828;28;8836;-66
2022/06/01 07:21:50;;;;;;;;;15.50;15.25;;;;;15.02;63.21;99669.31;5052408;28;8845;-67
2022/06/01 07:24:18;;;;;;;;;14.50;14.00;;;;;15.05;63.17;99677.03;5054397;28;8854;-66
2022/06/01 07:26:46;;;;;;;;;15.25;13.50;;;;;15.09;62.91;99667.69;5054087;28;8872;-66
2022/06/01 07:29:14;;;;;;;;;9.50;8.75;;;;;15.14;62.62;99673.41;5053694;28;8842;-66
2022/06/01 07:31:42;;;;;;;;;15.00;13.00;;;;;15.28;62.75;99671.00;5053673;28;8948;-67
2022/06/01 07:34:10;;;;;;;;;12.25;9.75;;;;;15.47;61.70;99673.47;5054067;28;8834;-66
2022/06/01 07:36:38;;;;;;;;;9.75;9.75;;;;;15.70;61.92;99679.16;5053952;28;8842;-67
2022/06/01 07:44:36;;;;;;;;;7.00;6.00;;;;;15.75;61.21;99666.91;5053966;28;9016;-67
2022/06/01 07:47:04;;;;;;;;;4.75;3.50;;;;;15.79;61.19;99667.44;5054228;28;8830;-66
2022/06/01 07:49:52;;;;;;;;;3.75;3.75;;;;;15.85;60.76;99666.81;5051903;28;8854;-66
2022/06/01 07:52:39;;;;;;;;;6.00;6.00;;;;;15.87;60.79;99665.63;5048260;28;8842;-66
2022/06/01 07:55:07;;;;;;;;;3.75;3.75;;;;;15.89;60.34;99668.13;5053768;28;8912;-67
2022/06/01 07:57:34;;;;;;;;;2.00;1.00;;;;;15.97;60.31;99665.47;5053976;28;8858;-66
2022/06/01 08:00:03;;;;;;;;;6.00;3.50;;;;;16.08;60.23;99667.88;5054039;28;8826;-66
2022/06/01 08:02:31;;;;;;;;;4.00;4.00;;;;;16.22;59.63;99667.25;5053984;28;8842;-66
2022/06/01 08:04:58;;;;;;;;;3.00;3.00;;;;;16.30;59.97;99668.09;5053894;28;8846;-66
2022/06/01 08:07:26;;;;;;;;;5.00;3.75;;;;;16.48;58.88;99663.47;5053347;28;8846;-66
2022/06/01 08:09:55;;;;;;;;;3.00;3.00;;;;;16.70;58.96;99660.13;5053749;28;8826;-66
2022/06/01 08:15:10;;;;;;;;;3.20;3.20;;;;;16.96;57.97;99669.72;5028397;28;8846;-67
2022/06/01 08:17:46;;;;;;;;;1.00;1.00;;;;;17.05;58.17;99675.91;5052476;28;8834;-67
2022/06/01 08:20:14;;;;;;;;;1.60;0.00;;;;;17.25;57.45;99682.63;5051240;28;8832;-67
2022/06/01 08:22:42;;;;;;;;;3.50;3.00;;;;;17.29;57.36;99678.56;5036795;28;8852;-71
2022/06/01 08:25:10;;;;;;;;;2.00;2.00;;;;;17.24;57.57;99681.78;5037043;28;8837;-66
2022/06/01 08:27:38;;;;;;;;;1.00;1.00;;;;;17.18;57.43;99693.25;5037018;28;8852;-67
2022/06/01 08:30:05;;;;;;;;;3.00;3.00;;;;;17.24;57.61;99692.53;5056985;28;8952;-67
2022/06/01 08:32:33;;;;;;;;;0.20;0.20;;;;;17.30;57.57;99697.25;5057237;28;8834;-67
2022/06/01 08:35:01;;;;;;;;;4.00;4.00;;;;;17.33;57.53;99696.91;5056833;28;8830;-65
2022/06/01 08:37:30;;;;;;;;;2.60;2.60;;;;;17.36;57.53;99696.59;5057198;28;8838;-67
2022/06/01 08:39:57;;;;;;;;;4.00;4.00;;;;;17.39;57.23;99701.63;5056326;28;8988;-66
2022/06/01 08:42:25;;;;;;;;;3.00;2.60;;;;;17.46;57.00;99693.75;5053746;28;9602;-66
2022/06/01 08:44:54;;;;;;;;;3.00;3.00;;;;;17.59;56.23;99697.56;5055930;28;8843;-66
2022/06/01 08:47:22;;;;;;;;;5.50;5.50;;;;;17.68;56.85;99691.13;5042698;28;8825;-66
2022/06/01 08:49:50;;;;;;;;;3.50;3.50;;;;;17.76;56.27;99690.28;5035596;28;8850;-66
2022/06/01 08:52:18;;;;;;;;;6.00;4.50;;;;;17.74;56.09;99700.38;5035433;28;8840;-66
2022/06/01 08:54:45;;;;;;;;;5.60;5.60;;;;;17.79;56.12;99690.78;5039940;28;8846;-65
2022/06/01 08:57:13;;;;;;;;;7.00;5.60;;;;;17.76;56.02;99683.03;5035822;28;8850;-65
2022/06/01 08:59:42;;;;;;;;;6.40;6.20;;;;;17.73;56.11;99693.31;5039162;28;8842;-65
2022/06/01 09:02:09;;;;;;;;;7.00;6.00;;;;;17.84;56.56;99695.66;5034541;28;8833;-65
2022/06/01 09:04:37;;;;;;;;;7.00;7.00;;;;;17.99;55.61;99700.13;5034291;28;9038;-64
2022/06/01 09:07:05;;;;;;;;;6.00;6.00;;;;;18.08;55.24;99699.06;5029409;28;8876;-66
2022/06/01 09:09:34;;;;;;;;;6.00;6.00;;;;;18.08;55.89;99704.44;5016280;28;8844;-65
2022/06/01 09:12:02;;;;;;;;;6.00;6.00;;;;;18.21;55.14;99706.59;5016881;28;8848;-67
2022/06/01 09:14:30;;;;;;;;;4.00;4.00;;;;;18.30;55.31;99702.88;5032731;28;9864;-65
2022/06/01 09:16:59;;;;;;;;;4.00;4.00;;;;;18.20;55.10;99705.75;5035627;28;9584;-65
2022/06/01 09:19:27;;;;;;;;;5.60;5.60;;;;;17.97;55.33;99707.53;5035907;28;8840;-65
2022/06/01 09:24:40;;;;;;;;;1.00;1.00;;;;;17.98;56.10;99706.53;5035586;28;8860;-65
2022/06/01 09:27:08;;;;;;;;;8.80;6.80;;;;;18.12;55.38;99705.78;5036885;28;8849;-65
2022/06/01 09:29:36;;;;;;;;;5.60;5.60;;;;;18.34;54.85;99702.34;5054292;28;8869;-66
2022/06/01 09:32:03;;;;;;;;;4.00;4.00;;;;;18.59;54.08;99697.66;5054568;28;8846;-67
2022/06/01 09:34:31;;;;;;;;;4.00;4.00;;;;;18.73;53.81;99704.97;5054348;28;8997;-65
2022/06/01 09:37:00;;;;;;;;;6.00;4.00;;;;;18.75;53.48;99698.34;5052968;28;8952;-64
2022/06/01 09:39:28;;;;;;;;;3.60;3.20;;;;;18.80;53.91;99700.50;5053647;28;8850;-65
2022/06/01 09:41:56;;;;;;;;;3.60;3.60;;;;;18.90;53.36;99707.34;5054073;28;8850;-65
2022/06/01 09:44:23;;;;;;;;;1.00;1.00;;;;;19.03;53.38;99706.78;5053832;28;8910;-66
2022/06/01 09:46:52;;;;;;;;;3.80;3.80;;;;;19.16;52.78;99696.16;5052010;28;8830;-66
2022/06/01 09:49:21;;;;;;;;;3.00;3.00;;;;;19.20;52.69;99692.13;5052690;28;8977;-65
2022/06/01 09:51:49;;;;;;;;;3.00;3.00;;;;;19.19;52.76;99691.28;5054280;28;8834;-65
2022/06/01 09:54:17;;;;;;;;;3.00;3.00;;;;;19.21;52.85;99683.00;5055534;28;8846;-65
2022/06/01 09:56:47;;;;;;;;;3.80;3.20;;;;;19.10;52.67;99688.78;5055368;28;9738;-65
2022/06/01 10:07:30;;;;;;;;;3.60;2.40;;;;;20.27;50.68;99675.22;5053741;28;9586;-65
2022/06/01 10:09:59;;;;;;;;;3.80;2.40;;;;;20.62;50.25;99674.34;5052675;28;9574;-65
2022/06/01 10:12:26;;;;;;;;;4.00;3.80;;;;;20.57;50.21;99678.66;5053559;28;8968;-66
2022/06/01 10:14:54;;;;;;;;;5.20;4.00;;;;;20.38;50.78;99669.28;5053649;28;9546;-64
2022/06/01 10:17:22;;;;;;;;;2.00;1.60;;;;;20.27;50.51;99683.31;5053776;28;8838;-65
2022/06/01 10:19:49;;;;;;;;;2.00;2.00;;;;;20.16;50.88;99682.97;5054067;28;8964;-64
2022/06/01 10:22:18;;;;;;;;;4.00;3.20;;;;;20.57;50.36;99675.94;5053255;28;8860;-64
2022/06/01 10:24:45;;;;;;;;;4.40;4.20;;;;;20.93;49.62;99675.75;5054137;28;8856;-64
2022/06/01 10:27:13;;;;;;;;;4.80;4.80;;;;;21.32;49.08;99683.34;5047938;28;8852;-65
2022/06/01 10:29:41;;;;;;;;;4.00;4.00;;;;;21.83;48.14;99676.63;5033737;28;8837;-65
2022/06/01 10:32:09;;;;;;;;;4.00;4.00;;;;;22.39;46.43;99670.84;5034068;28;8867;-64
2022/06/01 10:34:37;;;;;;;;;4.20;4.20;;;;;22.67;46.87;99662.59;5033596;28;8844;-65
2022/06/01 10:37:05;;;;;;;;;4.00;4.00;;;;;22.62;47.20;99665.94;5033944;28;8828;-64
2022/06/01 10:39:33;;;;;;;;;3.80;2.00;;;;;22.55;47.30;99666.97;5033367;28;8856;-64
2022/06/01 10:42:01;;;;;;;;;4.00;4.00;;;;;22.35;47.36;99675.03;5033451;28;8848;-64
2022/06/01 10:44:28;;;;;;;;;2.00;2.00;;;;;22.47;47.22;99680.72;5033663;28;8862;-64
2022/06/01 10:46:57;;;;;;;;;5.00;5.00;;;;;22.73;46.76;99673.50;5032828;28;8840;-64
2022/06/01 10:49:26;;;;;;;;;4.40;4.00;;;;;22.90;46.54;99677.47;5032510;28;8984;-64
2022/06/01 10:51:53;;;;;;;;;4.40;4.40;;;;;23.05;45.68;99674.56;5032704;28;9186;-64
2022/06/01 10:54:21;;;;;;;;;1.00;1.00;;;;;23.03;46.03;99676.66;5032929;28;8883;-65
2022/06/01 10:56:49;;;;;;;;;2.00;2.00;;;;;23.00;45.59;99680.63;5033579;28;8848;-64
2022/06/01 10:59:17;;;;;;;;;4.80;4.00;;;;;23.06;45.87;99685.22;5052599;28;8908;-65
2022/06/01 11:01:45;;;;;;;;;3.20;3.20;;;;;22.75;46.21;99681.41;5052231;28;8964;-65
2022/06/01 11:04:13;;;;;;;;;4.00;4.00;;;;;22.20;47.50;99692.47;5052196;28;9587;-65
2022/06/01 11:06:41;;;;;;;;;4.60;4.60;;;;;22.28;47.21;99685.00;5040331;28;8843;-65
2022/06/01 11:09:08;;;;;;;;;2.00;1.60;;;;;22.39;46.44;99689.84;5048314;28;9545;-65
2022/06/01 11:11:37;;;;;;;;;4.00;3.60;;;;;22.79;45.74;99679.97;5038058;28;8820;-64
2022/06/01 11:14:04;;;;;;;;;4.00;4.00;;;;;23.10;45.15;99681.06;5033924;28;8852;-65
2022/06/01 11:16:32;;;;;;;;;4.00;4.00;;;;;23.57;44.21;99683.56;5034423;28;8994;-65
2022/06/01 11:19:00;;;;;;;;;4.00;4.00;;;;;23.77;44.43;99688.97;5034229;28;9542;-65
2022/06/01 11:21:28;;;;;;;;;3.60;2.40;;;;;23.85;43.95;99686.03;5047171;28;8826;-65
2022/06/01 11:23:56;;;;;;;;;2.80;2.80;;;;;23.65;44.65;99685.22;5054455;28;8822;-64
2022/06/01 11:26:24;;;;;;;;;4.80;4.80;;;;;23.45;44.64;99679.81;5041379;28;8841;-65
2022/06/01 11:28:55;;;;;;;;;4.00;4.00;;;;;23.48;44.23;99692.16;5033456;28;8868;-64
2022/06/01 11:31:22;;;;;;;;;4.40;4.40;;;;;23.44;44.32;99686.31;5034110;28;8836;-64
2022/06/01 11:33:50;;;;;;;;;1.80;1.80;;;;;23.63;43.51;99692.78;5033384;28;8848;-64
2022/06/01 11:36:18;;;;;;;;;2.00;2.00;;;;;23.87;43.33;99681.25;5033682;28;8856;-65
2022/06/01 11:38:47;;;;;;;;;2.80;2.00;;;;;23.47;43.66;99695.94;5033164;28;8875;-64
2022/06/01 11:41:15;;;;;;;;;2.80;2.80;;;;;23.23;43.64;99688.41;5043004;28;8954;-64
2022/06/01 11:43:49;;;;;;;;;0.00;0.00;;;;;23.44;43.43;99688.19;5051705;28;8881;-64
2022/06/01 11:46:17;;;;;;;;;1.60;1.60;;;;;24.03;42.73;99687.06;5032802;28;9511;-66
2022/06/01 11:48:45;;;;;;;;;4.00;4.00;;;;;24.31;42.17;99698.50;5032668;28;8853;-65
2022/06/01 11:51:13;;;;;;;;;2.60;2.60;;;;;24.33;41.91;99690.09;5036280;28;8835;-65
2022/06/01 11:53:41;;;;;;;;;5.00;5.00;;;;;24.13;41.98;99683.91;5044560;28;8838;-65
2022/06/01 11:56:09;;;;;;;;;4.00;4.00;;;;;23.87;42.53;99690.25;5040313;28;8844;-65
2022/06/01 11:58:37;;;;;;;;;5.20;4.60;;;;;24.21;41.71;99691.81;5048585;28;8869;-66
2022/06/01 12:01:05;;;;;;;;;1.80;1.80;;;;;23.99;42.72;99687.72;5043520;28;9548;-65
2022/06/01 12:03:32;;;;;;;;;4.40;4.00;;;;;23.90;42.16;99687.09;5046123;28;8931;-64
2022/06/01 12:06:00;;;;;;;;;4.00;4.00;;;;;23.79;42.44;99692.31;5040554;28;8840;-65
2022/06/01 12:08:30;;;;;;;;;2.00;2.00;;;;;23.67;42.64;99694.84;5037042;28;8833;-65
2022/06/01 12:10:58;;;;;;;;;4.40;2.60;;;;;23.82;41.71;99687.28;5036917;28;8967;-65
2022/06/01 12:13:26;;;;;;;;;3.60;3.60;;;;;23.55;42.09;99687.56;5048361;28;9621;-67